sensor_id;sensor_type;location;lat;lon;timestamp;P1;durP1;ratioP1;P2;durP2;ratioP2
71606;SDS011;60641;53.556;9.914;2023-02-15T00:01:21;32.20;;;17.40;;
71606;SDS011;60641;53.556;9.914;2023-02-15T00:03:47;34.90;;;17.80;;
71606;SDS011;60641;53.556;9.914;2023-02-15T00:06:14;32.90;;;17.10;;
71606;SDS011;60641;53.556;9.914;2023-02-15T00:08:41;33.30;;;16.80;;
71606;SDS011;60641;53.556;9.914;2023-02-15T00:11:11;32.30;;;16.90;;
71606;SDS011;60641;53.556;9.914;2023-02-15T00:13:39;32.40;;;17.00;;
71606;SDS011;60641;53.556;9.914;2023-02-15T00:16:10;34.00;;;17.10;;
71606;SDS011;60641;53.556;9.914;2023-02-15T00:18:38;32.90;;;16.80;;
71606;SDS011;60641;53.556;9.914;2023-02-15T00:21:05;30.70;;;16.30;;
71606;SDS011;60641;53.556;9.914;2023-02-15T00:23:33;29.50;;;15.80;;
71606;SDS011;60641;53.556;9.914;2023-02-15T00:26:07;30.20;;;15.40;;
71606;SDS011;60641;53.556;9.914;2023-02-15T00:28:37;33.20;;;16.70;;
71606;SDS011;60641;53.556;9.914;2023-02-15T00:31:08;32.90;;;16.90;;
71606;SDS011;60641;53.556;9.914;2023-02-15T00:33:36;31.30;;;16.00;;
71606;SDS011;60641;53.556;9.914;2023-02-15T00:36:03;38.50;;;18.60;;
71606;SDS011;60641;53.556;9.914;2023-02-15T00:38:32;31.70;;;16.60;;
71606;SDS011;60641;53.556;9.914;2023-02-15T00:40:59;31.90;;;16.50;;
71606;SDS011;60641;53.556;9.914;2023-02-15T00:43:27;38.20;;;18.70;;
71606;SDS011;60641;53.556;9.914;2023-02-15T00:45:55;31.20;;;16.70;;
71606;SDS011;60641;53.556;9.914;2023-02-15T00:48:21;36.30;;;18.50;;
71606;SDS011;60641;53.556;9.914;2023-02-15T00:50:52;36.00;;;17.90;;
71606;SDS011;60641;53.556;9.914;2023-02-15T00:53:20;33.90;;;17.80;;
71606;SDS011;60641;53.556;9.914;2023-02-15T00:55:46;37.70;;;19.30;;
71606;SDS011;60641;53.556;9.914;2023-02-15T00:58:13;40.00;;;19.70;;
71606;SDS011;60641;53.556;9.914;2023-02-15T01:00:40;34.80;;;17.50;;
71606;SDS011;60641;53.556;9.914;2023-02-15T01:03:09;34.00;;;18.30;;
71606;SDS011;60641;53.556;9.914;2023-02-15T01:05:36;37.70;;;18.40;;
71606;SDS011;60641;53.556;9.914;2023-02-15T01:08:03;38.50;;;19.00;;
71606;SDS011;60641;53.556;9.914;2023-02-15T01:10:29;39.60;;;19.10;;
71606;SDS011;60641;53.556;9.914;2023-02-15T01:12:56;35.50;;;18.80;;
71606;SDS011;60641;53.556;9.914;2023-02-15T01:15:23;34.20;;;18.40;;
71606;SDS011;60641;53.556;9.914;2023-02-15T01:17:50;34.90;;;18.10;;
71606;SDS011;60641;53.556;9.914;2023-02-15T01:22:46;39.30;;;19.90;;
71606;SDS011;60641;53.556;9.914;2023-02-15T01:25:16;39.10;;;19.10;;
71606;SDS011;60641;53.556;9.914;2023-02-15T01:27:43;37.60;;;18.90;;
71606;SDS011;60641;53.556;9.914;2023-02-15T01:30:10;40.20;;;19.30;;
71606;SDS011;60641;53.556;9.914;2023-02-15T01:32:36;35.40;;;18.10;;
71606;SDS011;60641;53.556;9.914;2023-02-15T01:35:03;37.40;;;18.20;;
71606;SDS011;60641;53.556;9.914;2023-02-15T01:37:30;37.40;;;19.00;;
71606;SDS011;60641;53.556;9.914;2023-02-15T01:39:57;34.40;;;17.70;;
71606;SDS011;60641;53.556;9.914;2023-02-15T01:42:26;36.60;;;18.70;;
71606;SDS011;60641;53.556;9.914;2023-02-15T01:45:03;37.00;;;18.40;;
71606;SDS011;60641;53.556;9.914;2023-02-15T01:47:44;38.30;;;19.20;;
71606;SDS011;60641;53.556;9.914;2023-02-15T01:55:40;35.40;;;18.40;;
71606;SDS011;60641;53.556;9.914;2023-02-15T01:58:10;36.00;;;18.10;;
71606;SDS011;60641;53.556;9.914;2023-02-15T02:00:37;35.10;;;18.10;;
71606;SDS011;60641;53.556;9.914;2023-02-15T02:03:03;34.60;;;17.90;;
71606;SDS011;60641;53.556;9.914;2023-02-15T02:05:30;36.40;;;18.30;;
71606;SDS011;60641;53.556;9.914;2023-02-15T02:07:57;40.20;;;19.50;;
71606;SDS011;60641;53.556;9.914;2023-02-15T02:10:24;34.20;;;17.40;;
71606;SDS011;60641;53.556;9.914;2023-02-15T02:12:53;37.80;;;18.30;;
71606;SDS011;60641;53.556;9.914;2023-02-15T02:15:23;37.10;;;19.00;;
71606;SDS011;60641;53.556;9.914;2023-02-15T02:18:17;41.70;;;19.30;;
71606;SDS011;60641;53.556;9.914;2023-02-15T02:29:17;37.50;;;18.50;;
71606;SDS011;60641;53.556;9.914;2023-02-15T02:37:30;35.90;;;17.30;;
71606;SDS011;60641;53.556;9.914;2023-02-15T02:42:41;38.10;;;18.70;;
71606;SDS011;60641;53.556;9.914;2023-02-15T02:45:26;39.40;;;18.80;;
71606;SDS011;60641;53.556;9.914;2023-02-15T02:48:06;35.30;;;18.10;;
71606;SDS011;60641;53.556;9.914;2023-02-15T02:50:35;35.80;;;18.20;;
71606;SDS011;60641;53.556;9.914;2023-02-15T02:53:05;35.20;;;17.90;;
71606;SDS011;60641;53.556;9.914;2023-02-15T02:55:38;35.90;;;18.50;;
71606;SDS011;60641;53.556;9.914;2023-02-15T02:58:15;37.70;;;18.60;;
71606;SDS011;60641;53.556;9.914;2023-02-15T03:00:47;34.20;;;17.50;;
71606;SDS011;60641;53.556;9.914;2023-02-15T03:06:20;36.30;;;18.60;;
71606;SDS011;60641;53.556;9.914;2023-02-15T03:08:54;34.10;;;17.60;;
71606;SDS011;60641;53.556;9.914;2023-02-15T03:11:24;36.80;;;18.20;;
71606;SDS011;60641;53.556;9.914;2023-02-15T03:13:50;33.20;;;16.10;;
71606;SDS011;60641;53.556;9.914;2023-02-15T03:16:17;35.40;;;18.10;;
71606;SDS011;60641;53.556;9.914;2023-02-15T03:19:01;38.10;;;18.30;;
71606;SDS011;60641;53.556;9.914;2023-02-15T03:21:45;36.70;;;18.20;;
71606;SDS011;60641;53.556;9.914;2023-02-15T03:24:17;37.00;;;17.90;;
71606;SDS011;60641;53.556;9.914;2023-02-15T03:26:48;38.80;;;18.80;;
71606;SDS011;60641;53.556;9.914;2023-02-15T03:29:18;37.40;;;17.70;;
71606;SDS011;60641;53.556;9.914;2023-02-15T03:31:47;36.80;;;18.00;;
71606;SDS011;60641;53.556;9.914;2023-02-15T03:34:17;34.30;;;17.20;;
71606;SDS011;60641;53.556;9.914;2023-02-15T03:36:57;36.30;;;18.20;;
71606;SDS011;60641;53.556;9.914;2023-02-15T03:47:26;35.90;;;18.10;;
71606;SDS011;60641;53.556;9.914;2023-02-15T03:50:10;34.60;;;17.60;;
71606;SDS011;60641;53.556;9.914;2023-02-15T03:52:58;34.50;;;17.50;;
71606;SDS011;60641;53.556;9.914;2023-02-15T03:55:26;34.90;;;17.50;;
71606;SDS011;60641;53.556;9.914;2023-02-15T03:57:53;35.30;;;17.70;;
71606;SDS011;60641;53.556;9.914;2023-02-15T04:00:39;34.90;;;16.90;;
71606;SDS011;60641;53.556;9.914;2023-02-15T04:03:30;32.40;;;16.40;;
71606;SDS011;60641;53.556;9.914;2023-02-15T04:06:00;36.40;;;18.10;;
71606;SDS011;60641;53.556;9.914;2023-02-15T04:08:27;35.20;;;17.50;;
71606;SDS011;60641;53.556;9.914;2023-02-15T04:11:13;36.40;;;17.50;;
71606;SDS011;60641;53.556;9.914;2023-02-15T04:13:40;35.40;;;18.00;;
71606;SDS011;60641;53.556;9.914;2023-02-15T04:16:06;32.50;;;16.80;;
71606;SDS011;60641;53.556;9.914;2023-02-15T04:18:37;31.20;;;16.30;;
71606;SDS011;60641;53.556;9.914;2023-02-15T04:21:23;32.70;;;16.60;;
71606;SDS011;60641;53.556;9.914;2023-02-15T04:24:09;32.70;;;16.70;;
71606;SDS011;60641;53.556;9.914;2023-02-15T04:26:55;35.40;;;16.60;;
71606;SDS011;60641;53.556;9.914;2023-02-15T04:29:24;31.80;;;16.40;;
71606;SDS011;60641;53.556;9.914;2023-02-15T04:31:52;33.10;;;17.30;;
71606;SDS011;60641;53.556;9.914;2023-02-15T04:34:19;33.10;;;17.10;;
71606;SDS011;60641;53.556;9.914;2023-02-15T04:36:46;30.50;;;15.70;;
71606;SDS011;60641;53.556;9.914;2023-02-15T04:39:14;32.80;;;16.60;;
71606;SDS011;60641;53.556;9.914;2023-02-15T04:41:41;33.70;;;17.00;;
71606;SDS011;60641;53.556;9.914;2023-02-15T04:44:07;27.70;;;15.00;;
71606;SDS011;60641;53.556;9.914;2023-02-15T04:46:34;32.20;;;16.20;;
71606;SDS011;60641;53.556;9.914;2023-02-15T04:49:00;32.50;;;16.90;;
71606;SDS011;60641;53.556;9.914;2023-02-15T04:51:27;35.80;;;17.60;;
71606;SDS011;60641;53.556;9.914;2023-02-15T04:53:54;31.70;;;16.50;;
71606;SDS011;60641;53.556;9.914;2023-02-15T04:56:21;36.80;;;17.20;;
71606;SDS011;60641;53.556;9.914;2023-02-15T04:58:47;31.20;;;15.80;;
71606;SDS011;60641;53.556;9.914;2023-02-15T05:01:14;29.90;;;15.40;;
71606;SDS011;60641;53.556;9.914;2023-02-15T05:03:40;32.10;;;16.50;;
71606;SDS011;60641;53.556;9.914;2023-02-15T05:06:07;32.40;;;14.90;;
71606;SDS011;60641;53.556;9.914;2023-02-15T05:08:33;32.40;;;16.50;;
71606;SDS011;60641;53.556;9.914;2023-02-15T05:11:00;27.80;;;14.60;;
71606;SDS011;60641;53.556;9.914;2023-02-15T05:13:26;29.50;;;15.90;;
71606;SDS011;60641;53.556;9.914;2023-02-15T05:15:53;29.30;;;15.60;;
71606;SDS011;60641;53.556;9.914;2023-02-15T05:18:20;30.70;;;15.80;;
71606;SDS011;60641;53.556;9.914;2023-02-15T05:20:47;31.70;;;16.10;;
71606;SDS011;60641;53.556;9.914;2023-02-15T05:23:15;32.60;;;17.00;;
71606;SDS011;60641;53.556;9.914;2023-02-15T05:25:45;31.80;;;15.90;;
71606;SDS011;60641;53.556;9.914;2023-02-15T05:28:31;32.30;;;16.50;;
71606;SDS011;60641;53.556;9.914;2023-02-15T05:31:09;32.00;;;16.20;;
71606;SDS011;60641;53.556;9.914;2023-02-15T05:33:37;31.00;;;16.10;;
71606;SDS011;60641;53.556;9.914;2023-02-15T05:36:05;31.40;;;16.70;;
71606;SDS011;60641;53.556;9.914;2023-02-15T05:38:32;30.40;;;16.60;;
71606;SDS011;60641;53.556;9.914;2023-02-15T05:40:59;31.10;;;16.20;;
71606;SDS011;60641;53.556;9.914;2023-02-15T05:43:25;28.40;;;14.40;;
71606;SDS011;60641;53.556;9.914;2023-02-15T05:45:53;28.70;;;13.40;;
71606;SDS011;60641;53.556;9.914;2023-02-15T05:48:21;28.70;;;15.30;;
71606;SDS011;60641;53.556;9.914;2023-02-15T05:51:02;29.50;;;14.70;;
71606;SDS011;60641;53.556;9.914;2023-02-15T05:53:34;31.40;;;16.90;;
71606;SDS011;60641;53.556;9.914;2023-02-15T05:56:04;29.50;;;15.20;;
71606;SDS011;60641;53.556;9.914;2023-02-15T05:58:32;29.60;;;15.40;;
71606;SDS011;60641;53.556;9.914;2023-02-15T06:01:06;30.20;;;15.10;;
71606;SDS011;60641;53.556;9.914;2023-02-15T06:03:43;28.60;;;15.20;;
71606;SDS011;60641;53.556;9.914;2023-02-15T06:06:10;27.50;;;14.70;;
71606;SDS011;60641;53.556;9.914;2023-02-15T06:08:37;30.00;;;14.80;;
71606;SDS011;60641;53.556;9.914;2023-02-15T06:11:04;30.00;;;15.50;;
71606;SDS011;60641;53.556;9.914;2023-02-15T06:13:31;29.90;;;15.20;;
71606;SDS011;60641;53.556;9.914;2023-02-15T06:15:58;31.50;;;15.30;;
71606;SDS011;60641;53.556;9.914;2023-02-15T06:18:25;29.10;;;15.30;;
71606;SDS011;60641;53.556;9.914;2023-02-15T06:20:51;31.90;;;16.20;;
71606;SDS011;60641;53.556;9.914;2023-02-15T06:23:18;29.70;;;15.20;;
71606;SDS011;60641;53.556;9.914;2023-02-15T06:25:45;33.00;;;15.30;;
71606;SDS011;60641;53.556;9.914;2023-02-15T06:28:12;23.10;;;12.10;;
71606;SDS011;60641;53.556;9.914;2023-02-15T06:30:38;32.50;;;15.60;;
71606;SDS011;60641;53.556;9.914;2023-02-15T06:33:05;29.90;;;15.30;;
71606;SDS011;60641;53.556;9.914;2023-02-15T06:35:32;28.00;;;15.40;;
71606;SDS011;60641;53.556;9.914;2023-02-15T06:37:59;31.70;;;15.20;;
71606;SDS011;60641;53.556;9.914;2023-02-15T06:40:25;28.60;;;14.70;;
71606;SDS011;60641;53.556;9.914;2023-02-15T06:42:52;28.10;;;14.50;;
71606;SDS011;60641;53.556;9.914;2023-02-15T06:45:19;26.20;;;14.40;;
71606;SDS011;60641;53.556;9.914;2023-02-15T06:47:45;29.10;;;15.10;;
71606;SDS011;60641;53.556;9.914;2023-02-15T06:50:11;29.60;;;14.90;;
71606;SDS011;60641;53.556;9.914;2023-02-15T06:52:38;30.70;;;15.40;;
71606;SDS011;60641;53.556;9.914;2023-02-15T06:55:05;30.70;;;15.40;;
71606;SDS011;60641;53.556;9.914;2023-02-15T06:57:32;31.00;;;15.20;;
71606;SDS011;60641;53.556;9.914;2023-02-15T06:59:59;34.50;;;16.80;;
71606;SDS011;60641;53.556;9.914;2023-02-15T07:02:26;35.70;;;17.60;;
71606;SDS011;60641;53.556;9.914;2023-02-15T07:04:52;32.00;;;16.00;;
71606;SDS011;60641;53.556;9.914;2023-02-15T07:07:18;35.90;;;18.70;;
71606;SDS011;60641;53.556;9.914;2023-02-15T07:09:45;30.10;;;14.30;;
71606;SDS011;60641;53.556;9.914;2023-02-15T07:12:11;34.20;;;16.80;;
71606;SDS011;60641;53.556;9.914;2023-02-15T07:14:56;35.20;;;18.10;;
71606;SDS011;60641;53.556;9.914;2023-02-15T07:17:24;34.30;;;17.00;;
71606;SDS011;60641;53.556;9.914;2023-02-15T07:19:54;32.70;;;16.50;;
71606;SDS011;60641;53.556;9.914;2023-02-15T07:22:21;32.90;;;16.90;;
71606;SDS011;60641;53.556;9.914;2023-02-15T07:24:47;31.00;;;16.20;;
71606;SDS011;60641;53.556;9.914;2023-02-15T07:27:15;32.10;;;16.80;;
71606;SDS011;60641;53.556;9.914;2023-02-15T07:29:42;33.60;;;16.30;;
71606;SDS011;60641;53.556;9.914;2023-02-15T07:32:08;33.10;;;17.20;;
71606;SDS011;60641;53.556;9.914;2023-02-15T07:34:35;32.10;;;16.50;;
71606;SDS011;60641;53.556;9.914;2023-02-15T07:37:01;33.70;;;17.10;;
71606;SDS011;60641;53.556;9.914;2023-02-15T07:39:28;34.60;;;17.20;;
71606;SDS011;60641;53.556;9.914;2023-02-15T07:41:54;33.60;;;17.40;;
71606;SDS011;60641;53.556;9.914;2023-02-15T07:44:20;33.40;;;16.90;;
71606;SDS011;60641;53.556;9.914;2023-02-15T07:46:47;36.00;;;17.50;;
71606;SDS011;60641;53.556;9.914;2023-02-15T07:49:13;34.30;;;16.50;;
71606;SDS011;60641;53.556;9.914;2023-02-15T07:51:40;34.80;;;17.70;;
71606;SDS011;60641;53.556;9.914;2023-02-15T07:54:07;38.20;;;19.30;;
71606;SDS011;60641;53.556;9.914;2023-02-15T07:56:33;34.50;;;17.20;;
71606;SDS011;60641;53.556;9.914;2023-02-15T07:59:02;32.50;;;15.80;;
71606;SDS011;60641;53.556;9.914;2023-02-15T08:01:32;34.00;;;17.20;;
71606;SDS011;60641;53.556;9.914;2023-02-15T08:03:59;30.50;;;15.40;;
71606;SDS011;60641;53.556;9.914;2023-02-15T08:06:27;31.30;;;16.10;;
71606;SDS011;60641;53.556;9.914;2023-02-15T08:08:54;30.50;;;15.90;;
71606;SDS011;60641;53.556;9.914;2023-02-15T08:11:22;31.00;;;16.90;;
71606;SDS011;60641;53.556;9.914;2023-02-15T08:14:12;35.10;;;17.20;;
71606;SDS011;60641;53.556;9.914;2023-02-15T08:16:44;33.90;;;16.10;;
71606;SDS011;60641;53.556;9.914;2023-02-15T08:21:52;32.40;;;16.30;;
71606;SDS011;60641;53.556;9.914;2023-02-15T08:24:20;35.50;;;17.00;;
71606;SDS011;60641;53.556;9.914;2023-02-15T08:26:48;36.10;;;18.10;;
71606;SDS011;60641;53.556;9.914;2023-02-15T08:29:15;37.60;;;17.40;;
71606;SDS011;60641;53.556;9.914;2023-02-15T08:31:42;33.40;;;16.60;;
71606;SDS011;60641;53.556;9.914;2023-02-15T08:34:09;30.90;;;16.00;;
71606;SDS011;60641;53.556;9.914;2023-02-15T08:36:37;33.20;;;16.40;;
71606;SDS011;60641;53.556;9.914;2023-02-15T08:39:04;34.60;;;17.00;;
71606;SDS011;60641;53.556;9.914;2023-02-15T08:41:35;31.00;;;15.40;;
71606;SDS011;60641;53.556;9.914;2023-02-15T08:44:03;37.40;;;17.30;;
71606;SDS011;60641;53.556;9.914;2023-02-15T08:46:32;36.20;;;17.60;;
71606;SDS011;60641;53.556;9.914;2023-02-15T08:49:01;33.80;;;16.70;;
71606;SDS011;60641;53.556;9.914;2023-02-15T08:51:29;33.80;;;16.40;;
71606;SDS011;60641;53.556;9.914;2023-02-15T08:53:58;33.30;;;16.90;;
71606;SDS011;60641;53.556;9.914;2023-02-15T08:56:27;33.40;;;16.50;;
71606;SDS011;60641;53.556;9.914;2023-02-15T08:58:55;35.90;;;16.90;;
71606;SDS011;60641;53.556;9.914;2023-02-15T09:01:23;34.20;;;17.10;;
71606;SDS011;60641;53.556;9.914;2023-02-15T09:03:51;33.10;;;16.50;;
71606;SDS011;60641;53.556;9.914;2023-02-15T09:06:21;31.60;;;16.00;;
71606;SDS011;60641;53.556;9.914;2023-02-15T09:08:48;32.20;;;16.50;;
71606;SDS011;60641;53.556;9.914;2023-02-15T09:11:16;32.50;;;16.10;;
71606;SDS011;60641;53.556;9.914;2023-02-15T09:13:52;29.50;;;15.50;;
71606;SDS011;60641;53.556;9.914;2023-02-15T09:16:20;29.50;;;15.40;;
71606;SDS011;60641;53.556;9.914;2023-02-15T09:18:47;30.40;;;16.00;;
71606;SDS011;60641;53.556;9.914;2023-02-15T09:21:16;29.00;;;14.80;;
71606;SDS011;60641;53.556;9.914;2023-02-15T09:23:44;29.10;;;15.50;;
71606;SDS011;60641;53.556;9.914;2023-02-15T09:26:13;31.10;;;15.20;;
71606;SDS011;60641;53.556;9.914;2023-02-15T09:28:41;31.80;;;15.90;;
71606;SDS011;60641;53.556;9.914;2023-02-15T09:31:11;31.30;;;16.70;;
71606;SDS011;60641;53.556;9.914;2023-02-15T09:33:40;31.30;;;16.30;;
71606;SDS011;60641;53.556;9.914;2023-02-15T09:36:41;32.00;;;16.90;;
71606;SDS011;60641;53.556;9.914;2023-02-15T09:39:08;34.50;;;17.10;;
71606;SDS011;60641;53.556;9.914;2023-02-15T09:58:10;34.50;;;17.40;;
71606;SDS011;60641;53.556;9.914;2023-02-15T10:03:33;37.70;;;18.90;;
71606;SDS011;60641;53.556;9.914;2023-02-15T10:06:32;39.00;;;19.30;;
71606;SDS011;60641;53.556;9.914;2023-02-15T10:09:16;37.20;;;18.20;;
71606;SDS011;60641;53.556;9.914;2023-02-15T10:19:56;35.50;;;18.20;;
71606;SDS011;60641;53.556;9.914;2023-02-15T10:27:55;39.30;;;19.10;;
71606;SDS011;60641;53.556;9.914;2023-02-15T10:30:31;37.90;;;18.60;;
71606;SDS011;60641;53.556;9.914;2023-02-15T10:33:56;38.20;;;19.00;;
71606;SDS011;60641;53.556;9.914;2023-02-15T10:36:16;37.00;;;18.60;;
71606;SDS011;60641;53.556;9.914;2023-02-15T10:39:23;37.80;;;19.00;;
71606;SDS011;60641;53.556;9.914;2023-02-15T10:45:04;37.10;;;17.20;;
71606;SDS011;60641;53.556;9.914;2023-02-15T11:03:36;37.10;;;18.60;;
71606;SDS011;60641;53.556;9.914;2023-02-15T11:08:33;41.40;;;20.70;;
71606;SDS011;60641;53.556;9.914;2023-02-15T11:11:03;41.70;;;20.50;;
71606;SDS011;60641;53.556;9.914;2023-02-15T11:13:34;42.50;;;21.70;;
71606;SDS011;60641;53.556;9.914;2023-02-15T11:16:17;43.90;;;20.90;;
71606;SDS011;60641;53.556;9.914;2023-02-15T11:21:31;43.20;;;22.50;;
71606;SDS011;60641;53.556;9.914;2023-02-15T11:23:59;49.20;;;23.90;;
71606;SDS011;60641;53.556;9.914;2023-02-15T11:27:12;43.90;;;22.70;;
71606;SDS011;60641;53.556;9.914;2023-02-15T11:31:49;48.30;;;24.30;;
71606;SDS011;60641;53.556;9.914;2023-02-15T11:34:29;42.20;;;21.60;;
71606;SDS011;60641;53.556;9.914;2023-02-15T11:37:35;46.20;;;23.30;;
71606;SDS011;60641;53.556;9.914;2023-02-15T11:40:01;47.00;;;23.40;;
71606;SDS011;60641;53.556;9.914;2023-02-15T11:42:30;42.70;;;21.40;;
71606;SDS011;60641;53.556;9.914;2023-02-15T11:47:51;45.90;;;23.70;;
71606;SDS011;60641;53.556;9.914;2023-02-15T11:50:29;46.60;;;23.40;;
71606;SDS011;60641;53.556;9.914;2023-02-15T11:53:01;41.70;;;22.60;;
71606;SDS011;60641;53.556;9.914;2023-02-15T11:55:29;47.90;;;23.50;;
71606;SDS011;60641;53.556;9.914;2023-02-15T11:58:04;40.90;;;21.60;;
71606;SDS011;60641;53.556;9.914;2023-02-15T12:06:14;39.00;;;20.90;;
71606;SDS011;60641;53.556;9.914;2023-02-15T12:09:34;40.20;;;21.10;;
71606;SDS011;60641;53.556;9.914;2023-02-15T12:14:49;40.80;;;21.00;;
71606;SDS011;60641;53.556;9.914;2023-02-15T12:17:17;40.00;;;19.70;;
71606;SDS011;60641;53.556;9.914;2023-02-15T12:19:46;38.50;;;19.20;;
71606;SDS011;60641;53.556;9.914;2023-02-15T12:22:18;41.30;;;19.50;;
71606;SDS011;60641;53.556;9.914;2023-02-15T12:24:51;34.90;;;18.90;;
71606;SDS011;60641;53.556;9.914;2023-02-15T12:27:30;35.00;;;18.60;;
71606;SDS011;60641;53.556;9.914;2023-02-15T12:30:03;34.00;;;17.60;;
71606;SDS011;60641;53.556;9.914;2023-02-15T12:32:34;32.40;;;18.20;;
71606;SDS011;60641;53.556;9.914;2023-02-15T12:40:38;36.30;;;18.90;;
71606;SDS011;60641;53.556;9.914;2023-02-15T12:43:16;33.70;;;19.30;;
71606;SDS011;60641;53.556;9.914;2023-02-15T12:45:51;35.20;;;19.20;;
71606;SDS011;60641;53.556;9.914;2023-02-15T12:48:19;33.60;;;18.00;;
71606;SDS011;60641;53.556;9.914;2023-02-15T12:50:50;33.70;;;18.00;;
71606;SDS011;60641;53.556;9.914;2023-02-15T12:53:29;33.90;;;18.70;;
71606;SDS011;60641;53.556;9.914;2023-02-15T12:56:05;32.00;;;17.30;;
71606;SDS011;60641;53.556;9.914;2023-02-15T12:58:34;29.10;;;16.80;;
71606;SDS011;60641;53.556;9.914;2023-02-15T13:06:21;35.90;;;19.20;;
71606;SDS011;60641;53.556;9.914;2023-02-15T13:08:52;33.70;;;18.80;;
71606;SDS011;60641;53.556;9.914;2023-02-15T13:11:22;33.30;;;18.20;;
71606;SDS011;60641;53.556;9.914;2023-02-15T13:13:53;34.40;;;19.60;;
71606;SDS011;60641;53.556;9.914;2023-02-15T13:16:28;31.30;;;18.50;;
71606;SDS011;60641;53.556;9.914;2023-02-15T13:18:57;34.60;;;19.20;;
71606;SDS011;60641;53.556;9.914;2023-02-15T13:21:32;32.80;;;17.60;;
71606;SDS011;60641;53.556;9.914;2023-02-15T13:24:04;31.50;;;18.00;;
71606;SDS011;60641;53.556;9.914;2023-02-15T13:26:40;35.60;;;19.00;;
71606;SDS011;60641;53.556;9.914;2023-02-15T13:29:33;30.50;;;18.10;;
71606;SDS011;60641;53.556;9.914;2023-02-15T13:32:00;31.50;;;17.80;;
71606;SDS011;60641;53.556;9.914;2023-02-15T13:34:32;33.40;;;18.40;;
71606;SDS011;60641;53.556;9.914;2023-02-15T13:39:47;33.90;;;18.30;;
71606;SDS011;60641;53.556;9.914;2023-02-15T13:42:22;31.80;;;17.70;;
71606;SDS011;60641;53.556;9.914;2023-02-15T13:48:15;28.50;;;16.80;;
71606;SDS011;60641;53.556;9.914;2023-02-15T13:56:15;29.90;;;16.80;;
71606;SDS011;60641;53.556;9.914;2023-02-15T14:01:45;31.50;;;16.50;;
71606;SDS011;60641;53.556;9.914;2023-02-15T14:07:37;28.30;;;16.90;;
71606;SDS011;60641;53.556;9.914;2023-02-15T14:16:14;28.40;;;15.80;;
71606;SDS011;60641;53.556;9.914;2023-02-15T14:19:21;25.90;;;15.30;;
71606;SDS011;60641;53.556;9.914;2023-02-15T14:24:43;29.30;;;15.90;;
71606;SDS011;60641;53.556;9.914;2023-02-15T14:27:23;24.30;;;14.90;;
71606;SDS011;60641;53.556;9.914;2023-02-15T14:30:26;24.00;;;14.10;;
71606;SDS011;60641;53.556;9.914;2023-02-15T14:32:56;26.00;;;15.00;;
71606;SDS011;60641;53.556;9.914;2023-02-15T14:35:27;24.70;;;15.10;;
71606;SDS011;60641;53.556;9.914;2023-02-15T14:44:00;25.00;;;15.40;;
71606;SDS011;60641;53.556;9.914;2023-02-15T14:49:37;26.80;;;15.60;;
71606;SDS011;60641;53.556;9.914;2023-02-15T14:52:08;28.40;;;16.20;;
71606;SDS011;60641;53.556;9.914;2023-02-15T15:02:29;25.40;;;15.00;;
71606;SDS011;60641;53.556;9.914;2023-02-15T15:05:02;25.10;;;15.40;;
71606;SDS011;60641;53.556;9.914;2023-02-15T15:12:44;26.30;;;14.60;;
71606;SDS011;60641;53.556;9.914;2023-02-15T15:18:00;29.30;;;15.80;;
71606;SDS011;60641;53.556;9.914;2023-02-15T15:31:26;25.90;;;14.40;;
71606;SDS011;60641;53.556;9.914;2023-02-15T15:34:18;25.20;;;14.80;;
71606;SDS011;60641;53.556;9.914;2023-02-15T15:42:32;23.60;;;14.10;;
71606;SDS011;60641;53.556;9.914;2023-02-15T15:51:02;24.60;;;13.80;;
71606;SDS011;60641;53.556;9.914;2023-02-15T15:53:34;21.10;;;12.60;;
71606;SDS011;60641;53.556;9.914;2023-02-15T15:56:08;25.10;;;14.50;;
71606;SDS011;60641;53.556;9.914;2023-02-15T15:58:41;25.40;;;13.70;;
71606;SDS011;60641;53.556;9.914;2023-02-15T16:01:11;22.00;;;13.50;;
71606;SDS011;60641;53.556;9.914;2023-02-15T16:03:53;24.50;;;13.90;;
71606;SDS011;60641;53.556;9.914;2023-02-15T16:06:27;25.00;;;13.90;;
71606;SDS011;60641;53.556;9.914;2023-02-15T16:09:12;25.60;;;13.80;;
71606;SDS011;60641;53.556;9.914;2023-02-15T16:11:52;24.10;;;14.00;;
71606;SDS011;60641;53.556;9.914;2023-02-15T16:14:25;24.90;;;13.80;;
71606;SDS011;60641;53.556;9.914;2023-02-15T16:16:56;21.60;;;13.00;;
71606;SDS011;60641;53.556;9.914;2023-02-15T16:19:26;21.40;;;13.30;;
71606;SDS011;60641;53.556;9.914;2023-02-15T16:21:54;23.20;;;14.20;;
71606;SDS011;60641;53.556;9.914;2023-02-15T16:24:26;23.20;;;14.50;;
71606;SDS011;60641;53.556;9.914;2023-02-15T16:27:15;23.50;;;13.30;;
71606;SDS011;60641;53.556;9.914;2023-02-15T16:29:49;23.10;;;13.70;;
71606;SDS011;60641;53.556;9.914;2023-02-15T16:32:22;26.30;;;14.80;;
71606;SDS011;60641;53.556;9.914;2023-02-15T16:35:00;20.60;;;12.20;;
71606;SDS011;60641;53.556;9.914;2023-02-15T16:37:48;32.00;;;18.60;;
71606;SDS011;60641;53.556;9.914;2023-02-15T16:42:51;23.60;;;13.40;;
71606;SDS011;60641;53.556;9.914;2023-02-15T16:45:44;20.60;;;11.70;;
71606;SDS011;60641;53.556;9.914;2023-02-15T16:48:20;19.40;;;11.00;;
71606;SDS011;60641;53.556;9.914;2023-02-15T16:50:54;22.80;;;13.50;;
71606;SDS011;60641;53.556;9.914;2023-02-15T16:53:27;22.80;;;13.80;;
71606;SDS011;60641;53.556;9.914;2023-02-15T16:56:00;23.00;;;13.10;;
71606;SDS011;60641;53.556;9.914;2023-02-15T16:58:39;19.10;;;11.40;;
71606;SDS011;60641;53.556;9.914;2023-02-15T17:01:10;24.20;;;13.40;;
71606;SDS011;60641;53.556;9.914;2023-02-15T17:03:38;21.90;;;13.30;;
71606;SDS011;60641;53.556;9.914;2023-02-15T17:06:18;22.40;;;13.20;;
71606;SDS011;60641;53.556;9.914;2023-02-15T17:08:46;25.00;;;14.20;;
71606;SDS011;60641;53.556;9.914;2023-02-15T17:14:09;26.00;;;15.20;;
71606;SDS011;60641;53.556;9.914;2023-02-15T17:16:36;26.80;;;14.70;;
71606;SDS011;60641;53.556;9.914;2023-02-15T17:19:09;25.90;;;15.00;;
71606;SDS011;60641;53.556;9.914;2023-02-15T17:21:41;27.10;;;14.30;;
71606;SDS011;60641;53.556;9.914;2023-02-15T17:24:16;26.50;;;15.20;;
71606;SDS011;60641;53.556;9.914;2023-02-15T17:26:45;27.50;;;14.80;;
71606;SDS011;60641;53.556;9.914;2023-02-15T17:29:22;28.30;;;14.40;;
71606;SDS011;60641;53.556;9.914;2023-02-15T17:31:52;26.30;;;15.20;;
71606;SDS011;60641;53.556;9.914;2023-02-15T17:40:16;27.50;;;15.70;;
71606;SDS011;60641;53.556;9.914;2023-02-15T17:42:44;27.70;;;15.50;;
71606;SDS011;60641;53.556;9.914;2023-02-15T17:45:10;27.80;;;15.60;;
71606;SDS011;60641;53.556;9.914;2023-02-15T17:47:37;28.30;;;15.90;;
71606;SDS011;60641;53.556;9.914;2023-02-15T17:50:04;30.60;;;16.80;;
71606;SDS011;60641;53.556;9.914;2023-02-15T17:52:31;27.80;;;15.20;;
71606;SDS011;60641;53.556;9.914;2023-02-15T17:54:58;28.00;;;16.00;;
71606;SDS011;60641;53.556;9.914;2023-02-15T17:57:44;26.60;;;15.80;;
71606;SDS011;60641;53.556;9.914;2023-02-15T18:00:12;28.30;;;16.20;;
71606;SDS011;60641;53.556;9.914;2023-02-15T18:02:58;27.80;;;15.60;;
71606;SDS011;60641;53.556;9.914;2023-02-15T18:05:43;27.30;;;16.40;;
71606;SDS011;60641;53.556;9.914;2023-02-15T18:08:29;21.70;;;11.30;;
71606;SDS011;60641;53.556;9.914;2023-02-15T18:11:14;29.00;;;16.20;;
71606;SDS011;60641;53.556;9.914;2023-02-15T18:14:01;26.20;;;15.20;;